Terminal Aerodrome Forecast
Issued by NWS Green Bay, WI

Home | Current Version | Previous Version | Graphics & Text | Print | Product List | Glossary On
Versions: 1 2 3 4 5 6 7 8 9 10 11 12 13 14 15 16 17 18
000
FTUS43 KGRB 291136
TAFGRB
TAF
KGRB 291136Z 2912/3012 25007KT P6SM SCT070 BKN100
      TEMPO 2912/2913 4SM -SHRA BKN050
     FM291500 26014G24KT P6SM VCSH BKN045
      TEMPO 2920/2924 -SHRA
     FM300200 26010KT P6SM VCSH BKN035 BKN070=

USA.gov is the U.S. government's official web portal to all federal, state and local government web resources and services.